This is the latest recevied weather packets stored in our database for station/object IQ5KG. If no packets are shown the sender has not sent any weather packets the latest 10 day(s).
| Time | Temp. | Humidity | Pressure | Rain* | Wind** | Luminosity | Snow |
|---|---|---|---|---|---|---|---|
| 1777432599 | 11.11° C | 70% | 1016.1 hPa | 0 mm | - | - | - |
| 1777431701 | 11.11° C | 70% | 1016.1 hPa | 0 mm | - | - | - |
| 1777430801 | 11.67° C | 68% | 1016 hPa | 0 mm | - | - | - |
| 1777429901 | 12.78° C | 67% | 1015.9 hPa | 0 mm | - | - | - |
| 1777429001 | 12.22° C | 67% | 1015.9 hPa | 0 mm | - | - | - |
| 1777428100 | 12.22° C | 65% | 1015.6 hPa | 0 mm | - | - | - |
| 1777427200 | 13.33° C | 63% | 1015.6 hPa | 0 mm | - | - | - |
| 1777426299 | 13.89° C | 61% | 1015.6 hPa | 0 mm | - | - | - |
| 1777425400 | 13.89° C | 62% | 1015.6 hPa | 0 mm | - | - | - |
| 1777424499 | 13.89° C | 62% | 1015.7 hPa | 0 mm | - | - | - |
| 1777423598 | 13.33° C | 65% | 1015.7 hPa | 0 mm | - | - | - |
| 1777422699 | 13.33° C | 66% | 1015.9 hPa | 0 mm | - | - | - |
| 1777421798 | 13.33° C | 67% | 1015.7 hPa | 0 mm | - | - | - |
| 1777420898 | 13.33° C | 66% | 1015.5 hPa | 0 mm | - | - | - |
| 1777419999 | 13.33° C | 66% | 1015.5 hPa | 0 mm | - | - | - |
| 1777419098 | 13.89° C | 66% | 1015.5 hPa | 0 mm | - | - | - |
| 1777418199 | 13.89° C | 66% | 1015.8 hPa | 0 mm | - | - | - |
| 1777417297 | 13.89° C | 66% | 1015.8 hPa | 0 mm | - | - | - |
| 1777416398 | 14.44° C | 66% | 1015.8 hPa | 0 mm | - | - | - |
| 1777415498 | 14.44° C | 67% | 1015.9 hPa | 0 mm | - | - | - |
| 1777414597 | 14.44° C | 66% | 1015.8 hPa | 0 mm | - | - | - |
| 1777413697 | 14.44° C | 68% | 1015.9 hPa | 0 mm | - | - | - |
| 1777412798 | 15° C | 66% | 1015.7 hPa | 0 mm | - | - | - |
| 1777411897 | 15.56° C | 62% | 1015.6 hPa | 0 mm | - | - | - |
| 1777410997 | 15.56° C | 61% | 1015.8 hPa | 0 mm | - | - | - |
* Rain latest hour (hover to see other rain measurements)
** Current wind speed in m/s (hover to see current wind gust speed)